sensor_id;sensor_type;location;lat;lon;timestamp;temperature;humidity
18898;DHT22;9581;49.484;8.556;2022-09-13T00:01:01;16.90;99.90
18898;DHT22;9581;49.484;8.556;2022-09-13T00:03:29;16.90;99.90
18898;DHT22;9581;49.484;8.556;2022-09-13T00:05:56;16.90;99.90
18898;DHT22;9581;49.484;8.556;2022-09-13T00:08:24;17.00;99.90
18898;DHT22;9581;49.484;8.556;2022-09-13T00:10:51;16.90;99.90
18898;DHT22;9581;49.484;8.556;2022-09-13T00:13:18;17.00;99.90
18898;DHT22;9581;49.484;8.556;2022-09-13T00:15:46;16.90;99.90
18898;DHT22;9581;49.484;8.556;2022-09-13T00:18:14;16.70;99.90
18898;DHT22;9581;49.484;8.556;2022-09-13T00:20:43;16.60;99.90
18898;DHT22;9581;49.484;8.556;2022-09-13T00:23:10;16.70;99.90
18898;DHT22;9581;49.484;8.556;2022-09-13T00:25:37;16.70;99.90
18898;DHT22;9581;49.484;8.556;2022-09-13T00:28:04;16.60;99.90
18898;DHT22;9581;49.484;8.556;2022-09-13T00:30:31;16.90;99.90
18898;DHT22;9581;49.484;8.556;2022-09-13T00:32:58;16.70;99.90
18898;DHT22;9581;49.484;8.556;2022-09-13T00:35:29;16.60;99.90
18898;DHT22;9581;49.484;8.556;2022-09-13T00:37:58;16.70;99.90
18898;DHT22;9581;49.484;8.556;2022-09-13T00:40:25;16.70;99.90
18898;DHT22;9581;49.484;8.556;2022-09-13T00:42:51;16.40;99.90
18898;DHT22;9581;49.484;8.556;2022-09-13T00:45:18;16.50;99.90
18898;DHT22;9581;49.484;8.556;2022-09-13T00:47:49;16.50;99.90
18898;DHT22;9581;49.484;8.556;2022-09-13T00:50:19;16.50;99.90
18898;DHT22;9581;49.484;8.556;2022-09-13T00:52:49;16.40;99.90
18898;DHT22;9581;49.484;8.556;2022-09-13T00:55:23;16.40;99.90
18898;DHT22;9581;49.484;8.556;2022-09-13T00:57:52;16.30;99.90
18898;DHT22;9581;49.484;8.556;2022-09-13T01:00:19;16.40;99.90
18898;DHT22;9581;49.484;8.556;2022-09-13T01:02:49;16.30;99.90
18898;DHT22;9581;49.484;8.556;2022-09-13T01:05:19;16.30;99.90
18898;DHT22;9581;49.484;8.556;2022-09-13T01:07:48;16.20;99.90
18898;DHT22;9581;49.484;8.556;2022-09-13T01:10:15;16.10;99.90
18898;DHT22;9581;49.484;8.556;2022-09-13T01:12:48;16.20;99.90
18898;DHT22;9581;49.484;8.556;2022-09-13T01:15:18;15.90;99.90
18898;DHT22;9581;49.484;8.556;2022-09-13T01:17:45;16.00;99.90
18898;DHT22;9581;49.484;8.556;2022-09-13T01:20:12;16.10;99.90
18898;DHT22;9581;49.484;8.556;2022-09-13T01:23:16;16.00;99.90
18898;DHT22;9581;49.484;8.556;2022-09-13T01:26:19;16.10;99.90
18898;DHT22;9581;49.484;8.556;2022-09-13T01:29:24;16.00;99.90
18898;DHT22;9581;49.484;8.556;2022-09-13T01:32:00;16.10;99.90
18898;DHT22;9581;49.484;8.556;2022-09-13T01:34:37;16.20;99.90
18898;DHT22;9581;49.484;8.556;2022-09-13T01:37:28;16.20;99.90
18898;DHT22;9581;49.484;8.556;2022-09-13T01:40:05;16.30;99.90
18898;DHT22;9581;49.484;8.556;2022-09-13T01:42:44;15.90;99.90
18898;DHT22;9581;49.484;8.556;2022-09-13T01:45:20;16.00;99.90
18898;DHT22;9581;49.484;8.556;2022-09-13T01:47:54;16.30;99.90
18898;DHT22;9581;49.484;8.556;2022-09-13T01:50:28;16.60;99.90
18898;DHT22;9581;49.484;8.556;2022-09-13T01:52:59;16.60;99.90
18898;DHT22;9581;49.484;8.556;2022-09-13T01:55:31;16.30;99.90
18898;DHT22;9581;49.484;8.556;2022-09-13T01:58:07;16.10;99.90
18898;DHT22;9581;49.484;8.556;2022-09-13T02:00:39;16.00;99.90
18898;DHT22;9581;49.484;8.556;2022-09-13T02:03:13;16.10;99.90
18898;DHT22;9581;49.484;8.556;2022-09-13T02:05:46;16.00;99.90
18898;DHT22;9581;49.484;8.556;2022-09-13T02:08:17;15.90;99.90
18898;DHT22;9581;49.484;8.556;2022-09-13T02:10:48;15.90;99.90
18898;DHT22;9581;49.484;8.556;2022-09-13T02:13:20;16.00;99.90
18898;DHT22;9581;49.484;8.556;2022-09-13T02:15:51;16.00;99.90
18898;DHT22;9581;49.484;8.556;2022-09-13T02:18:23;15.80;99.90
18898;DHT22;9581;49.484;8.556;2022-09-13T02:20:54;15.90;99.90
18898;DHT22;9581;49.484;8.556;2022-09-13T02:23:28;16.00;99.90
18898;DHT22;9581;49.484;8.556;2022-09-13T02:25:59;15.90;99.90
18898;DHT22;9581;49.484;8.556;2022-09-13T02:28:33;15.70;99.90
18898;DHT22;9581;49.484;8.556;2022-09-13T02:31:03;15.90;99.90
18898;DHT22;9581;49.484;8.556;2022-09-13T02:33:37;16.10;99.90
18898;DHT22;9581;49.484;8.556;2022-09-13T02:36:07;16.00;99.90
18898;DHT22;9581;49.484;8.556;2022-09-13T02:38:39;15.90;99.90
18898;DHT22;9581;49.484;8.556;2022-09-13T02:41:13;16.00;99.90
18898;DHT22;9581;49.484;8.556;2022-09-13T02:43:47;16.10;99.90
18898;DHT22;9581;49.484;8.556;2022-09-13T02:46:21;15.90;99.90
18898;DHT22;9581;49.484;8.556;2022-09-13T02:48:57;15.80;99.90
18898;DHT22;9581;49.484;8.556;2022-09-13T02:51:32;15.80;99.90
18898;DHT22;9581;49.484;8.556;2022-09-13T02:54:09;15.70;99.90
18898;DHT22;9581;49.484;8.556;2022-09-13T02:56:46;15.80;99.90
18898;DHT22;9581;49.484;8.556;2022-09-13T02:59:16;16.00;99.90
18898;DHT22;9581;49.484;8.556;2022-09-13T03:01:46;15.90;99.90
18898;DHT22;9581;49.484;8.556;2022-09-13T03:04:16;16.00;99.90
18898;DHT22;9581;49.484;8.556;2022-09-13T03:06:43;15.90;99.90
18898;DHT22;9581;49.484;8.556;2022-09-13T03:09:10;15.70;99.90
18898;DHT22;9581;49.484;8.556;2022-09-13T03:11:58;15.70;99.90
18898;DHT22;9581;49.484;8.556;2022-09-13T03:14:36;15.80;99.90
18898;DHT22;9581;49.484;8.556;2022-09-13T03:17:26;15.90;99.90
18898;DHT22;9581;49.484;8.556;2022-09-13T03:20:08;15.80;99.90
18898;DHT22;9581;49.484;8.556;2022-09-13T03:25:45;15.50;99.90
18898;DHT22;9581;49.484;8.556;2022-09-13T03:28:22;15.50;99.90
18898;DHT22;9581;49.484;8.556;2022-09-13T03:30:55;15.30;99.90
18898;DHT22;9581;49.484;8.556;2022-09-13T03:33:27;15.30;99.90
18898;DHT22;9581;49.484;8.556;2022-09-13T03:36:03;15.20;99.90
18898;DHT22;9581;49.484;8.556;2022-09-13T03:38:35;15.20;99.90
18898;DHT22;9581;49.484;8.556;2022-09-13T03:41:06;15.40;99.90
18898;DHT22;9581;49.484;8.556;2022-09-13T03:43:39;15.60;99.90
18898;DHT22;9581;49.484;8.556;2022-09-13T03:46:10;15.70;99.90
18898;DHT22;9581;49.484;8.556;2022-09-13T03:48:39;15.90;99.90
18898;DHT22;9581;49.484;8.556;2022-09-13T03:51:09;15.90;99.90
18898;DHT22;9581;49.484;8.556;2022-09-13T03:53:39;15.90;99.90
18898;DHT22;9581;49.484;8.556;2022-09-13T03:56:14;16.00;99.90
18898;DHT22;9581;49.484;8.556;2022-09-13T03:58:42;16.20;99.90
18898;DHT22;9581;49.484;8.556;2022-09-13T04:01:09;16.00;99.90
18898;DHT22;9581;49.484;8.556;2022-09-13T04:03:36;16.30;99.90
18898;DHT22;9581;49.484;8.556;2022-09-13T04:06:03;16.30;99.90
18898;DHT22;9581;49.484;8.556;2022-09-13T04:08:32;15.80;99.90
18898;DHT22;9581;49.484;8.556;2022-09-13T04:10:59;15.60;99.90
18898;DHT22;9581;49.484;8.556;2022-09-13T04:13:26;15.30;99.90
18898;DHT22;9581;49.484;8.556;2022-09-13T04:15:54;15.10;99.90
18898;DHT22;9581;49.484;8.556;2022-09-13T04:18:21;15.40;99.90
18898;DHT22;9581;49.484;8.556;2022-09-13T04:20:56;15.60;99.90
18898;DHT22;9581;49.484;8.556;2022-09-13T04:23:23;15.80;99.90
18898;DHT22;9581;49.484;8.556;2022-09-13T04:25:52;15.80;99.90
18898;DHT22;9581;49.484;8.556;2022-09-13T04:28:20;15.90;99.90
18898;DHT22;9581;49.484;8.556;2022-09-13T04:30:48;16.00;99.90
18898;DHT22;9581;49.484;8.556;2022-09-13T04:33:15;16.00;99.90
18898;DHT22;9581;49.484;8.556;2022-09-13T04:35:42;15.90;99.90
18898;DHT22;9581;49.484;8.556;2022-09-13T04:38:09;15.80;99.90
18898;DHT22;9581;49.484;8.556;2022-09-13T04:40:36;15.80;99.90
18898;DHT22;9581;49.484;8.556;2022-09-13T04:43:05;16.10;99.90
18898;DHT22;9581;49.484;8.556;2022-09-13T04:45:31;16.10;99.90
18898;DHT22;9581;49.484;8.556;2022-09-13T04:47:58;16.00;99.90
18898;DHT22;9581;49.484;8.556;2022-09-13T04:50:25;16.20;99.90
18898;DHT22;9581;49.484;8.556;2022-09-13T04:52:54;16.30;99.90
18898;DHT22;9581;49.484;8.556;2022-09-13T04:55:21;16.20;99.90
18898;DHT22;9581;49.484;8.556;2022-09-13T04:57:52;16.10;99.90
18898;DHT22;9581;49.484;8.556;2022-09-13T05:00:20;16.00;99.90
18898;DHT22;9581;49.484;8.556;2022-09-13T05:02:47;16.30;99.90
18898;DHT22;9581;49.484;8.556;2022-09-13T05:05:14;16.60;99.90
18898;DHT22;9581;49.484;8.556;2022-09-13T05:07:41;16.70;99.90
18898;DHT22;9581;49.484;8.556;2022-09-13T05:10:08;16.80;99.90
18898;DHT22;9581;49.484;8.556;2022-09-13T05:12:35;16.60;99.90
18898;DHT22;9581;49.484;8.556;2022-09-13T05:15:02;16.40;99.90
18898;DHT22;9581;49.484;8.556;2022-09-13T05:17:32;16.40;99.90
18898;DHT22;9581;49.484;8.556;2022-09-13T05:19:59;16.60;99.90
18898;DHT22;9581;49.484;8.556;2022-09-13T05:22:26;16.80;99.90
18898;DHT22;9581;49.484;8.556;2022-09-13T05:24:53;16.90;99.90
18898;DHT22;9581;49.484;8.556;2022-09-13T05:27:20;16.50;99.90
18898;DHT22;9581;49.484;8.556;2022-09-13T05:29:47;16.40;99.90
18898;DHT22;9581;49.484;8.556;2022-09-13T05:32:13;16.30;99.90
18898;DHT22;9581;49.484;8.556;2022-09-13T05:34:41;16.40;99.90
18898;DHT22;9581;49.484;8.556;2022-09-13T05:37:08;16.50;99.90
18898;DHT22;9581;49.484;8.556;2022-09-13T05:39:35;16.50;99.90
18898;DHT22;9581;49.484;8.556;2022-09-13T05:42:02;16.40;99.90
18898;DHT22;9581;49.484;8.556;2022-09-13T05:44:29;16.30;99.90
18898;DHT22;9581;49.484;8.556;2022-09-13T05:46:55;16.00;99.90
18898;DHT22;9581;49.484;8.556;2022-09-13T05:49:22;16.00;99.90
18898;DHT22;9581;49.484;8.556;2022-09-13T05:51:50;16.30;99.90
18898;DHT22;9581;49.484;8.556;2022-09-13T05:54:17;16.70;99.90
18898;DHT22;9581;49.484;8.556;2022-09-13T05:56:44;16.90;99.90
18898;DHT22;9581;49.484;8.556;2022-09-13T05:59:12;16.90;99.90
18898;DHT22;9581;49.484;8.556;2022-09-13T06:01:39;17.10;99.90
18898;DHT22;9581;49.484;8.556;2022-09-13T06:04:06;17.10;99.90
18898;DHT22;9581;49.484;8.556;2022-09-13T06:06:33;17.10;99.90
18898;DHT22;9581;49.484;8.556;2022-09-13T06:09:02;17.20;99.90
18898;DHT22;9581;49.484;8.556;2022-09-13T06:11:30;17.30;99.90
18898;DHT22;9581;49.484;8.556;2022-09-13T06:13:57;17.40;99.90
18898;DHT22;9581;49.484;8.556;2022-09-13T06:16:24;17.40;99.90
18898;DHT22;9581;49.484;8.556;2022-09-13T06:18:51;17.40;99.90
18898;DHT22;9581;49.484;8.556;2022-09-13T06:21:20;17.40;99.90
18898;DHT22;9581;49.484;8.556;2022-09-13T06:23:48;17.30;99.90
18898;DHT22;9581;49.484;8.556;2022-09-13T06:26:18;17.30;99.90
18898;DHT22;9581;49.484;8.556;2022-09-13T06:28:47;17.50;99.90
18898;DHT22;9581;49.484;8.556;2022-09-13T06:31:15;17.40;99.90
18898;DHT22;9581;49.484;8.556;2022-09-13T06:33:42;17.50;99.90
18898;DHT22;9581;49.484;8.556;2022-09-13T06:36:11;17.60;99.90
18898;DHT22;9581;49.484;8.556;2022-09-13T06:38:39;17.60;99.90
18898;DHT22;9581;49.484;8.556;2022-09-13T06:41:08;17.60;99.90
18898;DHT22;9581;49.484;8.556;2022-09-13T06:43:37;17.70;99.90
18898;DHT22;9581;49.484;8.556;2022-09-13T06:46:05;17.70;99.90
18898;DHT22;9581;49.484;8.556;2022-09-13T06:48:33;17.50;99.90
18898;DHT22;9581;49.484;8.556;2022-09-13T06:51:03;17.40;99.90
18898;DHT22;9581;49.484;8.556;2022-09-13T06:53:30;17.70;99.90
18898;DHT22;9581;49.484;8.556;2022-09-13T06:56:04;17.30;99.90
18898;DHT22;9581;49.484;8.556;2022-09-13T06:58:32;17.00;99.90
18898;DHT22;9581;49.484;8.556;2022-09-13T07:01:10;16.70;99.90
18898;DHT22;9581;49.484;8.556;2022-09-13T07:03:39;17.10;99.90
18898;DHT22;9581;49.484;8.556;2022-09-13T07:06:11;17.00;99.90
18898;DHT22;9581;49.484;8.556;2022-09-13T07:08:38;17.00;99.90
18898;DHT22;9581;49.484;8.556;2022-09-13T07:11:05;17.50;99.90
18898;DHT22;9581;49.484;8.556;2022-09-13T07:13:32;17.30;99.90
18898;DHT22;9581;49.484;8.556;2022-09-13T07:16:03;17.50;99.90
18898;DHT22;9581;49.484;8.556;2022-09-13T07:18:32;17.90;99.90
18898;DHT22;9581;49.484;8.556;2022-09-13T07:21:00;18.20;99.90
18898;DHT22;9581;49.484;8.556;2022-09-13T07:23:28;18.10;99.90
18898;DHT22;9581;49.484;8.556;2022-09-13T07:25:56;18.10;99.90
18898;DHT22;9581;49.484;8.556;2022-09-13T07:28:27;18.20;99.90
18898;DHT22;9581;49.484;8.556;2022-09-13T07:30:55;18.40;99.90
18898;DHT22;9581;49.484;8.556;2022-09-13T07:33:23;18.50;99.90
18898;DHT22;9581;49.484;8.556;2022-09-13T07:35:55;18.60;99.90
18898;DHT22;9581;49.484;8.556;2022-09-13T07:38:22;18.60;99.90
18898;DHT22;9581;49.484;8.556;2022-09-13T07:40:53;18.80;99.90
18898;DHT22;9581;49.484;8.556;2022-09-13T07:43:20;18.90;99.90
18898;DHT22;9581;49.484;8.556;2022-09-13T07:45:47;18.60;99.90
18898;DHT22;9581;49.484;8.556;2022-09-13T07:48:13;18.80;99.90
18898;DHT22;9581;49.484;8.556;2022-09-13T07:50:40;19.00;99.90
18898;DHT22;9581;49.484;8.556;2022-09-13T07:53:08;19.20;99.90
18898;DHT22;9581;49.484;8.556;2022-09-13T07:55:35;18.80;99.90
18898;DHT22;9581;49.484;8.556;2022-09-13T07:58:02;19.00;99.90
18898;DHT22;9581;49.484;8.556;2022-09-13T08:00:29;19.20;99.90
18898;DHT22;9581;49.484;8.556;2022-09-13T08:02:56;19.30;99.90
18898;DHT22;9581;49.484;8.556;2022-09-13T08:05:22;19.30;99.90
18898;DHT22;9581;49.484;8.556;2022-09-13T08:07:49;19.40;99.90
18898;DHT22;9581;49.484;8.556;2022-09-13T08:10:17;19.30;99.90
18898;DHT22;9581;49.484;8.556;2022-09-13T08:12:44;19.50;99.90
18898;DHT22;9581;49.484;8.556;2022-09-13T08:15:11;19.50;99.90
18898;DHT22;9581;49.484;8.556;2022-09-13T08:17:38;19.70;99.90
18898;DHT22;9581;49.484;8.556;2022-09-13T08:20:05;19.80;99.90
18898;DHT22;9581;49.484;8.556;2022-09-13T08:22:32;19.80;99.90
18898;DHT22;9581;49.484;8.556;2022-09-13T08:24:59;19.90;99.90
18898;DHT22;9581;49.484;8.556;2022-09-13T08:27:28;20.00;99.90
18898;DHT22;9581;49.484;8.556;2022-09-13T08:29:55;20.10;99.90
18898;DHT22;9581;49.484;8.556;2022-09-13T08:32:22;20.00;99.90
18898;DHT22;9581;49.484;8.556;2022-09-13T08:34:48;20.10;99.90
18898;DHT22;9581;49.484;8.556;2022-09-13T08:37:15;20.30;99.90
18898;DHT22;9581;49.484;8.556;2022-09-13T08:39:42;20.40;99.90
18898;DHT22;9581;49.484;8.556;2022-09-13T08:42:21;20.50;99.90
18898;DHT22;9581;49.484;8.556;2022-09-13T08:44:53;20.50;99.90
18898;DHT22;9581;49.484;8.556;2022-09-13T08:47:31;20.60;99.90
18898;DHT22;9581;49.484;8.556;2022-09-13T08:50:06;20.60;99.90
18898;DHT22;9581;49.484;8.556;2022-09-13T08:52:44;20.50;99.90
18898;DHT22;9581;49.484;8.556;2022-09-13T08:55:20;20.60;99.90
18898;DHT22;9581;49.484;8.556;2022-09-13T08:57:54;20.60;99.90
18898;DHT22;9581;49.484;8.556;2022-09-13T09:00:30;20.00;99.90
18898;DHT22;9581;49.484;8.556;2022-09-13T09:03:18;19.90;99.90
18898;DHT22;9581;49.484;8.556;2022-09-13T09:05:48;20.20;99.90
18898;DHT22;9581;49.484;8.556;2022-09-13T09:08:26;20.50;99.90
18898;DHT22;9581;49.484;8.556;2022-09-13T09:10:56;20.40;99.90
18898;DHT22;9581;49.484;8.556;2022-09-13T09:13:27;20.70;99.90
18898;DHT22;9581;49.484;8.556;2022-09-13T09:15:59;21.10;99.90
18898;DHT22;9581;49.484;8.556;2022-09-13T09:18:29;20.90;99.90
18898;DHT22;9581;49.484;8.556;2022-09-13T09:21:00;20.90;99.90
18898;DHT22;9581;49.484;8.556;2022-09-13T09:23:31;21.10;99.90
18898;DHT22;9581;49.484;8.556;2022-09-13T09:26:13;21.00;99.90
18898;DHT22;9581;49.484;8.556;2022-09-13T09:28:41;21.50;99.90
18898;DHT22;9581;49.484;8.556;2022-09-13T09:31:14;21.90;99.90
18898;DHT22;9581;49.484;8.556;2022-09-13T09:33:55;21.90;99.90
18898;DHT22;9581;49.484;8.556;2022-09-13T09:36:35;22.10;99.90
18898;DHT22;9581;49.484;8.556;2022-09-13T09:39:03;22.50;99.90
18898;DHT22;9581;49.484;8.556;2022-09-13T09:41:32;21.60;99.90
18898;DHT22;9581;49.484;8.556;2022-09-13T09:44:11;22.00;99.90
18898;DHT22;9581;49.484;8.556;2022-09-13T09:46:42;21.70;99.90
18898;DHT22;9581;49.484;8.556;2022-09-13T09:49:15;21.90;99.90
18898;DHT22;9581;49.484;8.556;2022-09-13T09:51:57;22.20;99.90
18898;DHT22;9581;49.484;8.556;2022-09-13T09:54:26;22.70;99.90
18898;DHT22;9581;49.484;8.556;2022-09-13T09:56:55;22.70;99.90
18898;DHT22;9581;49.484;8.556;2022-09-13T09:59:26;22.20;99.90
18898;DHT22;9581;49.484;8.556;2022-09-13T10:01:55;22.60;99.90
18898;DHT22;9581;49.484;8.556;2022-09-13T10:04:23;22.70;99.90
18898;DHT22;9581;49.484;8.556;2022-09-13T10:07:08;22.00;99.90
18898;DHT22;9581;49.484;8.556;2022-09-13T10:09:36;22.00;99.90
18898;DHT22;9581;49.484;8.556;2022-09-13T10:12:04;22.10;99.90
18898;DHT22;9581;49.484;8.556;2022-09-13T10:14:37;22.00;99.90
18898;DHT22;9581;49.484;8.556;2022-09-13T10:17:17;21.90;99.90
18898;DHT22;9581;49.484;8.556;2022-09-13T10:19:54;22.30;99.90
18898;DHT22;9581;49.484;8.556;2022-09-13T10:22:22;22.80;99.90
18898;DHT22;9581;49.484;8.556;2022-09-13T10:24:49;22.50;99.90
18898;DHT22;9581;49.484;8.556;2022-09-13T10:27:22;22.40;99.90
18898;DHT22;9581;49.484;8.556;2022-09-13T10:29:51;22.70;99.90
18898;DHT22;9581;49.484;8.556;2022-09-13T10:32:22;22.60;99.90
18898;DHT22;9581;49.484;8.556;2022-09-13T10:34:50;22.80;99.90
18898;DHT22;9581;49.484;8.556;2022-09-13T10:37:20;23.10;99.90
18898;DHT22;9581;49.484;8.556;2022-09-13T10:39:53;23.00;99.90
18898;DHT22;9581;49.484;8.556;2022-09-13T10:42:23;23.30;99.90
18898;DHT22;9581;49.484;8.556;2022-09-13T10:44:52;23.10;99.90
18898;DHT22;9581;49.484;8.556;2022-09-13T10:47:25;23.20;99.90
18898;DHT22;9581;49.484;8.556;2022-09-13T10:49:54;23.30;99.90
18898;DHT22;9581;49.484;8.556;2022-09-13T10:52:28;23.30;99.90
18898;DHT22;9581;49.484;8.556;2022-09-13T10:54:55;23.20;99.90
18898;DHT22;9581;49.484;8.556;2022-09-13T10:57:41;23.00;99.90
18898;DHT22;9581;49.484;8.556;2022-09-13T11:00:10;23.00;99.90
18898;DHT22;9581;49.484;8.556;2022-09-13T11:02:48;23.00;99.90
18898;DHT22;9581;49.484;8.556;2022-09-13T11:05:22;23.00;99.90
18898;DHT22;9581;49.484;8.556;2022-09-13T11:08:30;22.90;99.90
18898;DHT22;9581;49.484;8.556;2022-09-13T11:11:09;22.90;99.90
18898;DHT22;9581;49.484;8.556;2022-09-13T11:13:50;23.10;99.90
18898;DHT22;9581;49.484;8.556;2022-09-13T11:16:33;23.30;99.90
18898;DHT22;9581;49.484;8.556;2022-09-13T11:19:29;23.30;99.90
18898;DHT22;9581;49.484;8.556;2022-09-13T11:22:16;22.90;99.90
18898;DHT22;9581;49.484;8.556;2022-09-13T11:24:59;22.70;99.90
18898;DHT22;9581;49.484;8.556;2022-09-13T11:27:32;22.80;99.90
18898;DHT22;9581;49.484;8.556;2022-09-13T11:30:13;22.90;99.90
18898;DHT22;9581;49.484;8.556;2022-09-13T11:32:56;22.60;99.90
18898;DHT22;9581;49.484;8.556;2022-09-13T11:35:41;22.70;99.90
18898;DHT22;9581;49.484;8.556;2022-09-13T11:38:30;22.50;99.90
18898;DHT22;9581;49.484;8.556;2022-09-13T11:41:07;22.60;99.90
18898;DHT22;9581;49.484;8.556;2022-09-13T11:43:54;22.60;99.90
18898;DHT22;9581;49.484;8.556;2022-09-13T11:46:28;22.90;99.90
18898;DHT22;9581;49.484;8.556;2022-09-13T11:49:07;23.00;99.90
18898;DHT22;9581;49.484;8.556;2022-09-13T11:51:47;22.80;99.90
18898;DHT22;9581;49.484;8.556;2022-09-13T11:54:26;23.00;99.90
18898;DHT22;9581;49.484;8.556;2022-09-13T11:56:57;23.10;99.90
18898;DHT22;9581;49.484;8.556;2022-09-13T11:59:34;23.20;99.90
18898;DHT22;9581;49.484;8.556;2022-09-13T12:02:09;23.20;99.90
18898;DHT22;9581;49.484;8.556;2022-09-13T12:04:45;23.30;99.90
18898;DHT22;9581;49.484;8.556;2022-09-13T12:07:22;23.20;99.90
18898;DHT22;9581;49.484;8.556;2022-09-13T12:09:54;23.10;99.90
18898;DHT22;9581;49.484;8.556;2022-09-13T12:12:29;23.20;99.90
18898;DHT22;9581;49.484;8.556;2022-09-13T12:15:02;23.40;99.90
18898;DHT22;9581;49.484;8.556;2022-09-13T12:17:35;23.50;99.90
18898;DHT22;9581;49.484;8.556;2022-09-13T12:20:10;23.30;99.90
18898;DHT22;9581;49.484;8.556;2022-09-13T12:22:39;23.20;99.90
18898;DHT22;9581;49.484;8.556;2022-09-13T12:25:18;23.00;99.90
18898;DHT22;9581;49.484;8.556;2022-09-13T12:27:51;22.90;99.90
18898;DHT22;9581;49.484;8.556;2022-09-13T12:30:22;22.70;99.90
18898;DHT22;9581;49.484;8.556;2022-09-13T12:32:50;22.80;99.90
18898;DHT22;9581;49.484;8.556;2022-09-13T12:35:22;22.80;99.90
18898;DHT22;9581;49.484;8.556;2022-09-13T12:38:13;22.80;99.90
18898;DHT22;9581;49.484;8.556;2022-09-13T12:40:57;22.80;99.90
18898;DHT22;9581;49.484;8.556;2022-09-13T12:43:41;22.80;99.90
18898;DHT22;9581;49.484;8.556;2022-09-13T12:49:36;22.90;99.90
18898;DHT22;9581;49.484;8.556;2022-09-13T12:52:19;22.90;99.90
18898;DHT22;9581;49.484;8.556;2022-09-13T12:55:27;22.90;99.90
18898;DHT22;9581;49.484;8.556;2022-09-13T12:58:04;22.90;99.90
18898;DHT22;9581;49.484;8.556;2022-09-13T13:00:38;22.90;99.90
18898;DHT22;9581;49.484;8.556;2022-09-13T13:03:13;22.80;99.90
18898;DHT22;9581;49.484;8.556;2022-09-13T13:05:44;22.90;99.90
18898;DHT22;9581;49.484;8.556;2022-09-13T13:08:27;23.00;99.90
18898;DHT22;9581;49.484;8.556;2022-09-13T13:11:05;23.30;99.90
18898;DHT22;9581;49.484;8.556;2022-09-13T13:13:35;23.60;99.90
18898;DHT22;9581;49.484;8.556;2022-09-13T13:16:20;23.90;99.90
18898;DHT22;9581;49.484;8.556;2022-09-13T13:18:49;24.00;99.90
18898;DHT22;9581;49.484;8.556;2022-09-13T13:21:32;24.10;99.90
18898;DHT22;9581;49.484;8.556;2022-09-13T13:24:37;24.00;99.90
18898;DHT22;9581;49.484;8.556;2022-09-13T13:27:36;24.20;99.90
18898;DHT22;9581;49.484;8.556;2022-09-13T13:33:25;24.30;99.90
18898;DHT22;9581;49.484;8.556;2022-09-13T13:35:52;24.30;99.90
18898;DHT22;9581;49.484;8.556;2022-09-13T13:38:41;24.30;99.90
18898;DHT22;9581;49.484;8.556;2022-09-13T13:41:42;24.50;99.90
18898;DHT22;9581;49.484;8.556;2022-09-13T13:48:11;25.20;99.90
18898;DHT22;9581;49.484;8.556;2022-09-13T13:51:14;25.30;99.90
18898;DHT22;9581;49.484;8.556;2022-09-13T13:53:44;25.40;99.90
18898;DHT22;9581;49.484;8.556;2022-09-13T13:56:45;25.00;99.90
18898;DHT22;9581;49.484;8.556;2022-09-13T13:59:19;25.40;99.90
18898;DHT22;9581;49.484;8.556;2022-09-13T14:01:51;25.50;99.90
18898;DHT22;9581;49.484;8.556;2022-09-13T14:04:49;25.50;99.90
18898;DHT22;9581;49.484;8.556;2022-09-13T14:10:19;25.60;99.90
18898;DHT22;9581;49.484;8.556;2022-09-13T14:13:01;25.30;99.90
18898;DHT22;9581;49.484;8.556;2022-09-13T14:15:42;25.30;99.90
18898;DHT22;9581;49.484;8.556;2022-09-13T14:18:28;25.20;99.90
18898;DHT22;9581;49.484;8.556;2022-09-13T14:21:02;25.20;99.90
18898;DHT22;9581;49.484;8.556;2022-09-13T14:23:30;24.90;99.90
18898;DHT22;9581;49.484;8.556;2022-09-13T14:25:59;24.80;99.90
18898;DHT22;9581;49.484;8.556;2022-09-13T14:28:26;24.80;99.90
18898;DHT22;9581;49.484;8.556;2022-09-13T14:30:55;24.70;99.90
18898;DHT22;9581;49.484;8.556;2022-09-13T14:33:25;24.60;99.90
18898;DHT22;9581;49.484;8.556;2022-09-13T14:35:58;24.40;99.90
18898;DHT22;9581;49.484;8.556;2022-09-13T14:38:28;24.40;99.90
18898;DHT22;9581;49.484;8.556;2022-09-13T14:41:00;24.30;99.90
18898;DHT22;9581;49.484;8.556;2022-09-13T14:43:28;24.10;99.90
18898;DHT22;9581;49.484;8.556;2022-09-13T14:46:00;24.20;99.90
18898;DHT22;9581;49.484;8.556;2022-09-13T14:48:30;24.20;99.90
18898;DHT22;9581;49.484;8.556;2022-09-13T14:51:00;24.10;99.90
18898;DHT22;9581;49.484;8.556;2022-09-13T14:53:31;24.40;99.90
18898;DHT22;9581;49.484;8.556;2022-09-13T14:56:02;24.60;99.90
18898;DHT22;9581;49.484;8.556;2022-09-13T14:58:34;24.60;99.90
18898;DHT22;9581;49.484;8.556;2022-09-13T15:01:05;24.70;99.90
18898;DHT22;9581;49.484;8.556;2022-09-13T15:03:34;24.70;99.90
18898;DHT22;9581;49.484;8.556;2022-09-13T15:06:02;24.40;99.90
18898;DHT22;9581;49.484;8.556;2022-09-13T15:08:44;24.40;99.90
18898;DHT22;9581;49.484;8.556;2022-09-13T15:11:14;24.30;99.90
18898;DHT22;9581;49.484;8.556;2022-09-13T15:13:42;24.20;99.90
18898;DHT22;9581;49.484;8.556;2022-09-13T15:16:28;24.20;99.90
18898;DHT22;9581;49.484;8.556;2022-09-13T15:19:15;24.30;99.90
18898;DHT22;9581;49.484;8.556;2022-09-13T15:21:43;24.40;99.90
18898;DHT22;9581;49.484;8.556;2022-09-13T15:24:18;24.20;99.90
18898;DHT22;9581;49.484;8.556;2022-09-13T15:26:46;24.10;99.90
18898;DHT22;9581;49.484;8.556;2022-09-13T15:29:16;24.20;99.90
18898;DHT22;9581;49.484;8.556;2022-09-13T15:31:44;24.30;99.90
18898;DHT22;9581;49.484;8.556;2022-09-13T15:34:12;24.20;99.90
18898;DHT22;9581;49.484;8.556;2022-09-13T15:36:46;24.40;99.90
18898;DHT22;9581;49.484;8.556;2022-09-13T15:39:17;24.70;99.90
18898;DHT22;9581;49.484;8.556;2022-09-13T15:41:51;24.90;99.90
18898;DHT22;9581;49.484;8.556;2022-09-13T15:44:18;26.10;99.90
18898;DHT22;9581;49.484;8.556;2022-09-13T15:46:47;27.20;99.90
18898;DHT22;9581;49.484;8.556;2022-09-13T15:49:16;27.40;99.90
18898;DHT22;9581;49.484;8.556;2022-09-13T15:51:43;27.00;99.90
18898;DHT22;9581;49.484;8.556;2022-09-13T15:54:11;26.60;99.90
18898;DHT22;9581;49.484;8.556;2022-09-13T15:56:41;26.60;99.90
18898;DHT22;9581;49.484;8.556;2022-09-13T15:59:12;26.60;99.90
18898;DHT22;9581;49.484;8.556;2022-09-13T16:01:39;26.50;99.90
18898;DHT22;9581;49.484;8.556;2022-09-13T16:04:06;26.40;99.90
18898;DHT22;9581;49.484;8.556;2022-09-13T16:06:33;26.40;99.90
18898;DHT22;9581;49.484;8.556;2022-09-13T16:09:00;26.20;99.90
18898;DHT22;9581;49.484;8.556;2022-09-13T16:11:27;26.10;99.90
18898;DHT22;9581;49.484;8.556;2022-09-13T16:13:55;26.00;99.90
18898;DHT22;9581;49.484;8.556;2022-09-13T16:16:22;25.90;99.90
18898;DHT22;9581;49.484;8.556;2022-09-13T16:18:49;25.70;99.90
18898;DHT22;9581;49.484;8.556;2022-09-13T16:21:15;25.50;99.90
18898;DHT22;9581;49.484;8.556;2022-09-13T16:23:42;25.10;99.90
18898;DHT22;9581;49.484;8.556;2022-09-13T16:26:09;24.90;99.90
18898;DHT22;9581;49.484;8.556;2022-09-13T16:28:36;24.50;99.90
18898;DHT22;9581;49.484;8.556;2022-09-13T16:31:05;24.40;99.90
18898;DHT22;9581;49.484;8.556;2022-09-13T16:33:32;24.40;99.90